Washougal, WA (98671)

3:21 PM PDT on March 29, 2017 (GMT -0700)
Colorado Ridge | | Change Station
Active Advisory: Flood Warning

Elev 330 ft 45.59 °N, 122.35 °W | Updated 59 seconds ago

Overcast
Overcast
53.4 °F
Feels Like 53.4 °F
N
7.3
Wind Variable Wind from West

Today
High -- | Low -- °F
--% Chance of Precip.
Yesterday
High -- | Low -- °F
Precip. -- in
Pressure 30.01 in
Visibility 8.0 miles
Clouds Few 2100 ft
Mostly Cloudy 4200 ft
Overcast 4900 ft
Dew Point 52 °F
Humidity 95%
Rainfall 0.58 in
Snow Depth Not available.
6:54 AM 7:34 PM
Waxing Crescent, 5% visible
METAR KTTD 292153Z 20015G22KT 8SM -RA FEW021 BKN042 OVC049 13/11 A3000 RMK AO2 RAB38 SLP160 P0000 T01280106
Pressure 30.01 in
Visibility 8.0 miles
Clouds Few 2100 ft
Mostly Cloudy 4200 ft
Overcast 4900 ft
Dew Point 52 °F
Humidity 95%
Rainfall 0.58 in
Snow Depth Not available.
6:54 AM 7:34 PM
Waxing Crescent, 5% visible
METAR KTTD 292153Z 20015G22KT 8SM -RA FEW021 BKN042 OVC049 13/11 A3000 RMK AO2 RAB38 SLP160 P0000 T01280106

Get Your Daily Forecast Email!

Thanks for signing up!

Be on the lookout for a verification email in your inbox.

You'll start receiving severe weather alerts in your inbox..

×

10-Day Weather Forecast

Almanac

Astronomy

Mar. 29, 2017 Rise Set
Actual Time
Civil Twilight
Nautical Twilight
Astronomical Twilight
Moon
Length of Visible Light
Length of Day
Tomorrow will be .
, % of the Moon is Illuminated

Today's Extremes

State Highs State Lows

Community

WunderPhotos

Upload Photos

1,962,540 photos uploaded!

WunderBlog® & News

Nearby

Air Quality

  Air Quality AQ Index Pollutant
Not available.

Snow Depth

Station Depth Elevation

Earthquake Activity

City Distance Mag. Time & Date
Minimum magnitude displayed is 2.5.

Earthquake Activity

City Distance Mag. Time & Date
Minimum magnitude displayed is 2.5.

Coastal Water Temperatures

Place Temperature

Stations

Nearby Weather Stations

Station Location Temp. Windchill Dew Point Humidity Wind Precip. Elev Updated Type
                   

Watches & Warnings

Flood Warning
Issued: 4:20 PM PDT Mar. 28, 2017 – National Weather Service

The Flood Warning continues for
the Columbia River at Vancouver.
* At 4 PM Tuesday the stage was... 17.3 feet.
* Flood stage is 16.0 feet.
* Forecast... this river will range from 17.3 to 17.9 feet through
Friday and remain above flood stage for the next several days.
* Impact... above 17 feet, expect flooding of some lowland access
roads, parking areas, and trails on Sauvie Island, around Vancouver
Lake, and other Parks near the river. Boaters beware of unusually
fast currents and debris in the river.


Lat... Lon 4555 12228 4567 12265 4576 12274 4576 12286 4556 12269